sensor_id;sensor_type;location;lat;lon;timestamp;pressure;altitude;pressure_sealevel;temperature;humidity
62655;BME280;48717;55.556;37.816;2023-02-20T00:00:28;97345.00;;;-7.35;91.83
62655;BME280;48717;55.556;37.816;2023-02-20T00:02:56;97339.06;;;-7.34;91.35
62655;BME280;48717;55.556;37.816;2023-02-20T00:05:23;97337.88;;;-7.45;91.30
62655;BME280;48717;55.556;37.816;2023-02-20T00:07:51;97322.13;;;-7.57;92.34
62655;BME280;48717;55.556;37.816;2023-02-20T00:10:18;97356.88;;;-7.37;91.92
62655;BME280;48717;55.556;37.816;2023-02-20T00:12:45;97350.03;;;-7.38;92.40
62655;BME280;48717;55.556;37.816;2023-02-20T00:15:16;97299.53;;;-7.71;91.97
62655;BME280;48717;55.556;37.816;2023-02-20T00:17:47;97330.13;;;-7.47;91.55
62655;BME280;48717;55.556;37.816;2023-02-20T00:20:23;97349.94;;;-7.41;92.01
62655;BME280;48717;55.556;37.816;2023-02-20T00:22:51;97307.50;;;-7.62;92.14
62655;BME280;48717;55.556;37.816;2023-02-20T00:25:19;97316.19;;;-7.56;91.18
62655;BME280;48717;55.556;37.816;2023-02-20T00:27:47;97344.81;;;-7.41;91.74
62655;BME280;48717;55.556;37.816;2023-02-20T00:30:17;97336.31;;;-7.40;91.87
62655;BME280;48717;55.556;37.816;2023-02-20T00:32:46;97305.16;;;-7.55;91.66
62655;BME280;48717;55.556;37.816;2023-02-20T00:35:14;97317.38;;;-7.45;91.45
62655;BME280;48717;55.556;37.816;2023-02-20T00:37:41;97333.56;;;-7.46;91.59
62655;BME280;48717;55.556;37.816;2023-02-20T00:40:10;97343.81;;;-7.46;91.59
62655;BME280;48717;55.556;37.816;2023-02-20T00:42:38;97339.47;;;-7.49;92.07
62655;BME280;48717;55.556;37.816;2023-02-20T00:45:06;97327.34;;;-7.54;92.88
62655;BME280;48717;55.556;37.816;2023-02-20T00:47:34;97302.16;;;-7.69;91.94
62655;BME280;48717;55.556;37.816;2023-02-20T00:50:02;97312.72;;;-7.58;92.82
62655;BME280;48717;55.556;37.816;2023-02-20T00:52:29;97331.00;;;-7.46;92.24
62655;BME280;48717;55.556;37.816;2023-02-20T00:54:57;97336.22;;;-7.43;91.97
62655;BME280;48717;55.556;37.816;2023-02-20T00:57:31;97329.28;;;-7.47;92.35
62655;BME280;48717;55.556;37.816;2023-02-20T00:59:59;97325.22;;;-7.40;92.15
62655;BME280;48717;55.556;37.816;2023-02-20T01:02:26;97332.97;;;-7.37;92.95
62655;BME280;48717;55.556;37.816;2023-02-20T01:04:53;97322.78;;;-7.36;92.49
62655;BME280;48717;55.556;37.816;2023-02-20T01:07:22;97328.72;;;-7.37;93.07
62655;BME280;48717;55.556;37.816;2023-02-20T01:09:49;97283.47;;;-7.67;91.84
62655;BME280;48717;55.556;37.816;2023-02-20T01:12:16;97311.09;;;-7.55;92.36
62655;BME280;48717;55.556;37.816;2023-02-20T01:14:45;97314.66;;;-7.51;93.23
62655;BME280;48717;55.556;37.816;2023-02-20T01:17:15;97333.84;;;-7.37;92.13
62655;BME280;48717;55.556;37.816;2023-02-20T01:19:46;97327.72;;;-7.42;92.31
62655;BME280;48717;55.556;37.816;2023-02-20T01:22:13;97324.44;;;-7.38;93.15
62655;BME280;48717;55.556;37.816;2023-02-20T01:24:40;97322.50;;;-7.45;92.54
62655;BME280;48717;55.556;37.816;2023-02-20T01:27:09;97319.03;;;-7.47;92.43
62655;BME280;48717;55.556;37.816;2023-02-20T01:29:36;97339.69;;;-7.41;92.97
62655;BME280;48717;55.556;37.816;2023-02-20T01:32:03;97323.13;;;-7.54;91.87
62655;BME280;48717;55.556;37.816;2023-02-20T01:34:30;97320.50;;;-7.55;92.66
62655;BME280;48717;55.556;37.816;2023-02-20T01:36:57;97331.00;;;-7.46;91.70
62655;BME280;48717;55.556;37.816;2023-02-20T01:39:28;97336.97;;;-7.45;92.16
62655;BME280;48717;55.556;37.816;2023-02-20T01:42:05;97337.97;;;-7.42;92.02
62655;BME280;48717;55.556;37.816;2023-02-20T01:44:35;97343.91;;;-7.43;92.79
62655;BME280;48717;55.556;37.816;2023-02-20T01:47:07;97329.97;;;-7.53;92.09
62655;BME280;48717;55.556;37.816;2023-02-20T01:52:14;97335.19;;;-7.50;92.82
62655;BME280;48717;55.556;37.816;2023-02-20T01:54:45;97316.84;;;-7.64;92.14
62655;BME280;48717;55.556;37.816;2023-02-20T01:57:18;97348.06;;;-7.47;91.64
62655;BME280;48717;55.556;37.816;2023-02-20T01:59:47;97337.59;;;-7.54;91.13
62655;BME280;48717;55.556;37.816;2023-02-20T02:02:16;97322.97;;;-7.58;91.72
62655;BME280;48717;55.556;37.816;2023-02-20T02:04:43;97316.06;;;-7.61;91.68
62655;BME280;48717;55.556;37.816;2023-02-20T02:07:12;97349.75;;;-7.47;91.17
62655;BME280;48717;55.556;37.816;2023-02-20T02:12:14;97323.97;;;-7.53;91.55
62655;BME280;48717;55.556;37.816;2023-02-20T02:14:41;97359.06;;;-7.49;91.37
62655;BME280;48717;55.556;37.816;2023-02-20T02:37:19;97352.63;;;-7.65;91.17
62655;BME280;48717;55.556;37.816;2023-02-20T02:40:13;97362.97;;;-7.62;92.19
62655;BME280;48717;55.556;37.816;2023-02-20T02:42:48;97363.00;;;-7.61;91.97
62655;BME280;48717;55.556;37.816;2023-02-20T02:45:54;97369.81;;;-7.61;92.06
62655;BME280;48717;55.556;37.816;2023-02-20T02:48:36;97367.31;;;-7.60;91.51
62655;BME280;48717;55.556;37.816;2023-02-20T02:51:11;97321.19;;;-7.89;91.15
62655;BME280;48717;55.556;37.816;2023-02-20T02:53:39;97351.41;;;-7.77;90.81
62655;BME280;48717;55.556;37.816;2023-02-20T02:56:09;97375.75;;;-7.62;91.03
62655;BME280;48717;55.556;37.816;2023-02-20T02:58:50;97370.38;;;-7.70;91.24
62655;BME280;48717;55.556;37.816;2023-02-20T03:01:18;97372.31;;;-7.63;91.47
62655;BME280;48717;55.556;37.816;2023-02-20T03:03:48;97377.44;;;-7.63;90.85
62655;BME280;48717;55.556;37.816;2023-02-20T03:06:24;97367.06;;;-7.67;91.49
62655;BME280;48717;55.556;37.816;2023-02-20T03:09:09;97345.22;;;-7.83;91.31
62655;BME280;48717;55.556;37.816;2023-02-20T03:11:39;97370.34;;;-7.71;91.29
62655;BME280;48717;55.556;37.816;2023-02-20T03:17:58;97380.72;;;-7.67;91.07
62655;BME280;48717;55.556;37.816;2023-02-20T03:20:27;97382.31;;;-7.70;91.64
62655;BME280;48717;55.556;37.816;2023-02-20T03:22:57;97381.66;;;-7.65;90.69
62655;BME280;48717;55.556;37.816;2023-02-20T03:25:30;97385.00;;;-7.66;91.96
62655;BME280;48717;55.556;37.816;2023-02-20T03:30:47;97384.03;;;-7.69;92.20
62655;BME280;48717;55.556;37.816;2023-02-20T03:36:35;97350.75;;;-7.97;90.79
62655;BME280;48717;55.556;37.816;2023-02-20T03:39:29;97371.44;;;-7.91;90.72
62655;BME280;48717;55.556;37.816;2023-02-20T03:42:18;97386.16;;;-7.83;90.58
62655;BME280;48717;55.556;37.816;2023-02-20T03:45:24;97380.84;;;-7.90;90.22
62655;BME280;48717;55.556;37.816;2023-02-20T03:47:55;97382.69;;;-7.86;90.48
62655;BME280;48717;55.556;37.816;2023-02-20T03:50:24;97382.56;;;-7.89;91.26
62655;BME280;48717;55.556;37.816;2023-02-20T03:53:10;97359.47;;;-8.18;90.49
62655;BME280;48717;55.556;37.816;2023-02-20T03:55:38;97381.09;;;-8.08;90.51
62655;BME280;48717;55.556;37.816;2023-02-20T03:58:11;97343.63;;;-8.33;91.39
62655;BME280;48717;55.556;37.816;2023-02-20T04:00:43;97375.69;;;-8.17;90.31
62655;BME280;48717;55.556;37.816;2023-02-20T04:03:16;97367.75;;;-8.25;91.60
62655;BME280;48717;55.556;37.816;2023-02-20T04:05:51;97393.53;;;-8.19;91.62
62655;BME280;48717;55.556;37.816;2023-02-20T04:08:32;97365.59;;;-8.39;91.55
62655;BME280;48717;55.556;37.816;2023-02-20T04:11:11;97385.78;;;-8.22;92.07
62655;BME280;48717;55.556;37.816;2023-02-20T04:13:40;97367.69;;;-8.27;91.92
62655;BME280;48717;55.556;37.816;2023-02-20T04:16:07;97349.69;;;-8.30;91.67
62655;BME280;48717;55.556;37.816;2023-02-20T04:18:36;97351.81;;;-8.44;91.39
62655;BME280;48717;55.556;37.816;2023-02-20T04:21:08;97374.41;;;-8.30;91.18
62655;BME280;48717;55.556;37.816;2023-02-20T04:23:45;97384.75;;;-8.27;90.81
62655;BME280;48717;55.556;37.816;2023-02-20T04:26:18;97396.91;;;-8.20;92.02
62655;BME280;48717;55.556;37.816;2023-02-20T04:28:48;97361.78;;;-8.50;91.29
62655;BME280;48717;55.556;37.816;2023-02-20T04:31:17;97389.44;;;-8.40;91.68
62655;BME280;48717;55.556;37.816;2023-02-20T04:33:46;97397.19;;;-8.36;91.54
62655;BME280;48717;55.556;37.816;2023-02-20T04:36:20;97406.69;;;-8.32;91.27
62655;BME280;48717;55.556;37.816;2023-02-20T04:38:49;97384.00;;;-8.49;90.73
62655;BME280;48717;55.556;37.816;2023-02-20T04:41:20;97407.47;;;-8.35;90.87
62655;BME280;48717;55.556;37.816;2023-02-20T04:43:47;97394.63;;;-8.36;90.39
62655;BME280;48717;55.556;37.816;2023-02-20T04:46:15;97407.28;;;-8.41;91.47
62655;BME280;48717;55.556;37.816;2023-02-20T04:48:43;97398.16;;;-8.59;90.21
62655;BME280;48717;55.556;37.816;2023-02-20T04:51:10;97403.47;;;-8.53;91.67
62655;BME280;48717;55.556;37.816;2023-02-20T04:53:37;97407.78;;;-8.50;90.60
62655;BME280;48717;55.556;37.816;2023-02-20T04:56:06;97394.78;;;-8.58;90.39
62655;BME280;48717;55.556;37.816;2023-02-20T04:58:37;97413.66;;;-8.54;90.65
62655;BME280;48717;55.556;37.816;2023-02-20T05:01:15;97386.75;;;-8.69;91.10
62655;BME280;48717;55.556;37.816;2023-02-20T05:03:42;97409.34;;;-8.55;90.10
62655;BME280;48717;55.556;37.816;2023-02-20T05:06:09;97415.34;;;-8.55;89.98
62655;BME280;48717;55.556;37.816;2023-02-20T05:08:37;97408.28;;;-8.62;90.86
62655;BME280;48717;55.556;37.816;2023-02-20T05:11:04;97411.00;;;-8.57;90.42
62655;BME280;48717;55.556;37.816;2023-02-20T05:13:31;97413.56;;;-8.57;89.96
62655;BME280;48717;55.556;37.816;2023-02-20T05:15:58;97405.66;;;-8.63;89.95
62655;BME280;48717;55.556;37.816;2023-02-20T05:18:29;97405.66;;;-8.63;89.79
62655;BME280;48717;55.556;37.816;2023-02-20T05:20:57;97366.56;;;-8.85;89.65
62655;BME280;48717;55.556;37.816;2023-02-20T05:23:45;97383.03;;;-8.77;89.98
62655;BME280;48717;55.556;37.816;2023-02-20T05:26:16;97411.81;;;-8.58;90.43
62655;BME280;48717;55.556;37.816;2023-02-20T05:28:43;97405.00;;;-8.58;89.82
62655;BME280;48717;55.556;37.816;2023-02-20T05:31:11;97426.63;;;-8.48;89.99
62655;BME280;48717;55.556;37.816;2023-02-20T05:33:42;97422.50;;;-8.44;88.57
62655;BME280;48717;55.556;37.816;2023-02-20T05:36:09;97398.03;;;-8.62;88.62
62655;BME280;48717;55.556;37.816;2023-02-20T05:38:37;97420.19;;;-8.36;89.12
62655;BME280;48717;55.556;37.816;2023-02-20T05:41:04;97424.91;;;-8.23;87.69
62655;BME280;48717;55.556;37.816;2023-02-20T05:43:35;97437.22;;;-8.13;87.31
62655;BME280;48717;55.556;37.816;2023-02-20T05:50:10;97417.25;;;-7.98;86.47
62655;BME280;48717;55.556;37.816;2023-02-20T05:56:11;97416.34;;;-7.99;86.09
62655;BME280;48717;55.556;37.816;2023-02-20T05:58:41;97414.81;;;-7.94;86.01
62655;BME280;48717;55.556;37.816;2023-02-20T06:01:21;97403.47;;;-8.02;85.51
62655;BME280;48717;55.556;37.816;2023-02-20T06:03:49;97429.09;;;-7.75;86.29
62655;BME280;48717;55.556;37.816;2023-02-20T06:06:17;97424.50;;;-7.85;84.71
62655;BME280;48717;55.556;37.816;2023-02-20T06:08:45;97440.00;;;-7.80;85.66
62655;BME280;48717;55.556;37.816;2023-02-20T06:11:12;97436.81;;;-7.73;85.45
62655;BME280;48717;55.556;37.816;2023-02-20T06:13:42;97432.44;;;-7.77;85.42
62655;BME280;48717;55.556;37.816;2023-02-20T06:16:09;97446.13;;;-7.75;83.74
62655;BME280;48717;55.556;37.816;2023-02-20T06:18:38;97435.28;;;-7.68;84.11
62655;BME280;48717;55.556;37.816;2023-02-20T06:21:08;97439.63;;;-7.65;84.33
62655;BME280;48717;55.556;37.816;2023-02-20T06:23:36;97417.25;;;-7.71;84.35
62655;BME280;48717;55.556;37.816;2023-02-20T06:26:05;97417.47;;;-7.65;84.30
62655;BME280;48717;55.556;37.816;2023-02-20T06:28:33;97454.84;;;-7.42;84.02
62655;BME280;48717;55.556;37.816;2023-02-20T06:31:00;97450.63;;;-7.42;83.30
62655;BME280;48717;55.556;37.816;2023-02-20T06:33:28;97457.56;;;-7.38;83.94
62655;BME280;48717;55.556;37.816;2023-02-20T06:35:55;97435.91;;;-7.48;82.88
62655;BME280;48717;55.556;37.816;2023-02-20T06:38:23;97452.25;;;-7.44;82.65
62655;BME280;48717;55.556;37.816;2023-02-20T06:40:51;97453.78;;;-7.49;83.73
62655;BME280;48717;55.556;37.816;2023-02-20T06:43:18;97454.09;;;-7.40;83.68
62655;BME280;48717;55.556;37.816;2023-02-20T06:45:46;97446.75;;;-7.29;84.03
62655;BME280;48717;55.556;37.816;2023-02-20T06:48:13;97422.63;;;-7.36;82.54
62655;BME280;48717;55.556;37.816;2023-02-20T06:50:40;97441.00;;;-7.22;81.54
62655;BME280;48717;55.556;37.816;2023-02-20T06:53:08;97445.88;;;-7.29;82.72
62655;BME280;48717;55.556;37.816;2023-02-20T06:55:35;97421.72;;;-7.38;82.97
62655;BME280;48717;55.556;37.816;2023-02-20T07:10:54;97459.88;;;-6.60;79.91
62655;BME280;48717;55.556;37.816;2023-02-20T07:13:29;97410.41;;;-6.88;79.57
62655;BME280;48717;55.556;37.816;2023-02-20T07:16:02;97418.97;;;-6.86;78.72
62655;BME280;48717;55.556;37.816;2023-02-20T07:18:32;97451.94;;;-6.69;78.23
62655;BME280;48717;55.556;37.816;2023-02-20T07:21:05;97447.63;;;-6.70;79.61
62655;BME280;48717;55.556;37.816;2023-02-20T07:23:45;97454.50;;;-6.69;79.25
62655;BME280;48717;55.556;37.816;2023-02-20T07:26:24;97469.03;;;-6.70;78.93
62655;BME280;48717;55.556;37.816;2023-02-20T07:29:06;97424.66;;;-6.96;79.65
62655;BME280;48717;55.556;37.816;2023-02-20T07:31:36;97454.22;;;-6.78;79.41
62655;BME280;48717;55.556;37.816;2023-02-20T07:34:11;97464.84;;;-6.66;79.27
62655;BME280;48717;55.556;37.816;2023-02-20T07:36:45;97457.22;;;-6.64;79.19
62655;BME280;48717;55.556;37.816;2023-02-20T07:39:17;97474.75;;;-6.48;78.47
62655;BME280;48717;55.556;37.816;2023-02-20T07:41:49;97452.38;;;-6.53;78.36
62655;BME280;48717;55.556;37.816;2023-02-20T07:44:56;97458.59;;;-6.45;77.33
62655;BME280;48717;55.556;37.816;2023-02-20T07:47:29;97460.50;;;-6.38;77.89
62655;BME280;48717;55.556;37.816;2023-02-20T07:49:59;97473.72;;;-6.24;77.54
62655;BME280;48717;55.556;37.816;2023-02-20T07:52:47;97473.81;;;-6.21;76.49
62655;BME280;48717;55.556;37.816;2023-02-20T07:55:22;97451.06;;;-6.39;76.77
62655;BME280;48717;55.556;37.816;2023-02-20T07:58:12;97482.34;;;-6.20;76.98
62655;BME280;48717;55.556;37.816;2023-02-20T08:00:45;97471.72;;;-6.34;75.85
62655;BME280;48717;55.556;37.816;2023-02-20T08:03:12;97480.41;;;-6.29;76.79
62655;BME280;48717;55.556;37.816;2023-02-20T08:05:39;97468.38;;;-6.32;76.39
62655;BME280;48717;55.556;37.816;2023-02-20T08:08:15;97432.47;;;-6.32;75.63
62655;BME280;48717;55.556;37.816;2023-02-20T08:10:42;97475.22;;;-5.98;75.21
62655;BME280;48717;55.556;37.816;2023-02-20T08:13:09;97483.84;;;-5.96;74.74
62655;BME280;48717;55.556;37.816;2023-02-20T08:15:37;97463.28;;;-5.98;74.73
62655;BME280;48717;55.556;37.816;2023-02-20T08:18:08;97473.81;;;-5.87;74.54
62655;BME280;48717;55.556;37.816;2023-02-20T08:20:48;97427.94;;;-6.08;73.55
62655;BME280;48717;55.556;37.816;2023-02-20T08:23:21;97465.03;;;-5.95;73.08
62655;BME280;48717;55.556;37.816;2023-02-20T08:25:51;97479.09;;;-5.81;73.77
62655;BME280;48717;55.556;37.816;2023-02-20T08:28:23;97479.00;;;-5.84;73.41
62655;BME280;48717;55.556;37.816;2023-02-20T08:30:50;97489.38;;;-5.81;72.41
62655;BME280;48717;55.556;37.816;2023-02-20T08:33:17;97489.38;;;-5.81;72.70
62655;BME280;48717;55.556;37.816;2023-02-20T08:35:44;97431.97;;;-6.18;72.28
62655;BME280;48717;55.556;37.816;2023-02-20T08:38:35;97501.50;;;-5.75;73.78
62655;BME280;48717;55.556;37.816;2023-02-20T08:41:05;97473.88;;;-5.84;73.29
62655;BME280;48717;55.556;37.816;2023-02-20T08:43:34;97508.94;;;-5.52;72.98
62655;BME280;48717;55.556;37.816;2023-02-20T08:46:04;97481.56;;;-5.52;72.91
62655;BME280;48717;55.556;37.816;2023-02-20T08:48:32;97502.47;;;-5.36;71.21
62655;BME280;48717;55.556;37.816;2023-02-20T08:50:59;97499.63;;;-5.47;71.24
62655;BME280;48717;55.556;37.816;2023-02-20T08:53:27;97471.28;;;-5.52;71.79
62655;BME280;48717;55.556;37.816;2023-02-20T08:55:55;97501.91;;;-5.24;71.27
62655;BME280;48717;55.556;37.816;2023-02-20T08:59:01;97483.25;;;-5.17;70.17
62655;BME280;48717;55.556;37.816;2023-02-20T09:01:31;97514.91;;;-4.81;70.62
62655;BME280;48717;55.556;37.816;2023-02-20T09:03:58;97488.38;;;-4.80;69.16
62655;BME280;48717;55.556;37.816;2023-02-20T09:06:25;97511.59;;;-4.77;68.16
62655;BME280;48717;55.556;37.816;2023-02-20T09:08:54;97488.44;;;-4.77;69.28
62655;BME280;48717;55.556;37.816;2023-02-20T09:11:22;97510.84;;;-4.71;68.97
62655;BME280;48717;55.556;37.816;2023-02-20T09:13:49;97467.56;;;-4.91;67.61
62655;BME280;48717;55.556;37.816;2023-02-20T09:16:19;97495.94;;;-4.86;68.28
62655;BME280;48717;55.556;37.816;2023-02-20T09:18:46;97499.69;;;-4.72;67.92
62655;BME280;48717;55.556;37.816;2023-02-20T09:21:16;97509.16;;;-4.70;67.69
62655;BME280;48717;55.556;37.816;2023-02-20T09:23:44;97512.75;;;-4.62;66.96
62655;BME280;48717;55.556;37.816;2023-02-20T09:26:11;97478.41;;;-4.64;67.37
62655;BME280;48717;55.556;37.816;2023-02-20T09:28:39;97450.84;;;-4.72;66.71
62655;BME280;48717;55.556;37.816;2023-02-20T09:31:06;97495.03;;;-4.48;66.43
62655;BME280;48717;55.556;37.816;2023-02-20T09:33:33;97486.97;;;-4.65;66.78
62655;BME280;48717;55.556;37.816;2023-02-20T09:36:00;97481.41;;;-4.84;65.68
62655;BME280;48717;55.556;37.816;2023-02-20T09:38:27;97500.66;;;-4.66;66.26
62655;BME280;48717;55.556;37.816;2023-02-20T09:40:57;97511.31;;;-4.49;66.70
62655;BME280;48717;55.556;37.816;2023-02-20T09:43:45;97510.88;;;-4.29;65.06
62655;BME280;48717;55.556;37.816;2023-02-20T09:46:22;97501.25;;;-4.38;64.89
62655;BME280;48717;55.556;37.816;2023-02-20T09:49:12;97509.81;;;-4.39;64.79
62655;BME280;48717;55.556;37.816;2023-02-20T09:51:55;97504.84;;;-4.30;66.02
62655;BME280;48717;55.556;37.816;2023-02-20T09:54:30;97494.25;;;-4.46;65.68
62655;BME280;48717;55.556;37.816;2023-02-20T09:57:04;97496.78;;;-4.47;64.74
62655;BME280;48717;55.556;37.816;2023-02-20T09:59:53;97515.84;;;-4.37;65.29
62655;BME280;48717;55.556;37.816;2023-02-20T10:02:29;97472.56;;;-4.57;64.12
62655;BME280;48717;55.556;37.816;2023-02-20T10:05:03;97512.69;;;-4.25;64.86
62655;BME280;48717;55.556;37.816;2023-02-20T10:07:39;97492.69;;;-4.37;65.00
62655;BME280;48717;55.556;37.816;2023-02-20T10:10:20;97505.97;;;-4.18;64.12
62655;BME280;48717;55.556;37.816;2023-02-20T10:12:52;97508.34;;;-4.28;64.52
62655;BME280;48717;55.556;37.816;2023-02-20T10:21:20;97505.41;;;-4.85;66.73
62655;BME280;48717;55.556;37.816;2023-02-20T10:29:53;97466.06;;;-5.19;67.83
62655;BME280;48717;55.556;37.816;2023-02-20T10:32:37;97508.72;;;-4.89;68.04
62655;BME280;48717;55.556;37.816;2023-02-20T10:35:10;97507.88;;;-4.88;67.51
62655;BME280;48717;55.556;37.816;2023-02-20T10:37:42;97495.91;;;-4.88;68.28
62655;BME280;48717;55.556;37.816;2023-02-20T10:40:32;97497.19;;;-4.68;68.34
62655;BME280;48717;55.556;37.816;2023-02-20T10:48:12;97511.16;;;-4.57;68.62
62655;BME280;48717;55.556;37.816;2023-02-20T10:56:17;97511.50;;;-4.41;67.66
62655;BME280;48717;55.556;37.816;2023-02-20T11:01:22;97475.25;;;-4.51;65.41
62655;BME280;48717;55.556;37.816;2023-02-20T11:03:58;97490.97;;;-4.38;64.16
62655;BME280;48717;55.556;37.816;2023-02-20T11:06:35;97502.25;;;-4.32;63.96
62655;BME280;48717;55.556;37.816;2023-02-20T11:09:03;97504.84;;;-4.30;63.21
62655;BME280;48717;55.556;37.816;2023-02-20T11:11:37;97494.66;;;-4.25;63.38
62655;BME280;48717;55.556;37.816;2023-02-20T11:14:15;97493.03;;;-4.22;64.03
62655;BME280;48717;55.556;37.816;2023-02-20T11:17:14;97500.97;;;-4.11;63.03
62655;BME280;48717;55.556;37.816;2023-02-20T11:19:53;97495.09;;;-4.02;61.73
62655;BME280;48717;55.556;37.816;2023-02-20T11:22:44;97473.72;;;-3.98;62.37
62655;BME280;48717;55.556;37.816;2023-02-20T11:25:19;97401.94;;;-4.30;62.88
62655;BME280;48717;55.556;37.816;2023-02-20T11:27:49;97491.00;;;-3.92;61.99
62655;BME280;48717;55.556;37.816;2023-02-20T11:35:30;97491.72;;;-4.01;62.92
62655;BME280;48717;55.556;37.816;2023-02-20T11:38:32;97421.91;;;-4.61;62.56
62655;BME280;48717;55.556;37.816;2023-02-20T11:41:23;97481.78;;;-4.27;62.52
62655;BME280;48717;55.556;37.816;2023-02-20T11:44:15;97505.91;;;-4.20;62.87
62655;BME280;48717;55.556;37.816;2023-02-20T11:46:47;97511.81;;;-4.26;63.07
62655;BME280;48717;55.556;37.816;2023-02-20T11:49:36;97514.34;;;-4.27;64.29
62655;BME280;48717;55.556;37.816;2023-02-20T11:52:15;97521.91;;;-4.35;64.01
62655;BME280;48717;55.556;37.816;2023-02-20T11:54:47;97517.69;;;-4.32;64.99
62655;BME280;48717;55.556;37.816;2023-02-20T11:57:37;97445.53;;;-4.78;64.49
62655;BME280;48717;55.556;37.816;2023-02-20T12:05:51;97518.47;;;-4.76;64.26
62655;BME280;48717;55.556;37.816;2023-02-20T12:10:58;97524.09;;;-5.28;66.41
62655;BME280;48717;55.556;37.816;2023-02-20T12:13:29;97512.59;;;-5.42;66.71
62655;BME280;48717;55.556;37.816;2023-02-20T12:16:12;97523.25;;;-5.27;67.32
62655;BME280;48717;55.556;37.816;2023-02-20T12:53:58;97520.59;;;-5.65;69.20
62655;BME280;48717;55.556;37.816;2023-02-20T13:02:32;97502.66;;;-5.96;70.81
62655;BME280;48717;55.556;37.816;2023-02-20T13:05:12;97518.78;;;-6.03;71.15
62655;BME280;48717;55.556;37.816;2023-02-20T13:10:29;97512.50;;;-6.13;71.43
62655;BME280;48717;55.556;37.816;2023-02-20T13:12:57;97530.50;;;-6.11;71.83
62655;BME280;48717;55.556;37.816;2023-02-20T13:18:25;97502.16;;;-6.16;72.72
62655;BME280;48717;55.556;37.816;2023-02-20T13:20:57;97510.84;;;-6.11;73.76
62655;BME280;48717;55.556;37.816;2023-02-20T13:23:30;97519.47;;;-6.09;73.09
62655;BME280;48717;55.556;37.816;2023-02-20T13:25:58;97502.09;;;-6.18;72.94
62655;BME280;48717;55.556;37.816;2023-02-20T13:28:40;97517.06;;;-6.01;73.10
62655;BME280;48717;55.556;37.816;2023-02-20T13:31:20;97518.75;;;-6.02;72.55
62655;BME280;48717;55.556;37.816;2023-02-20T13:36:58;97525.22;;;-6.16;72.40
62655;BME280;48717;55.556;37.816;2023-02-20T13:39:39;97519.78;;;-6.27;72.66
62655;BME280;48717;55.556;37.816;2023-02-20T13:42:26;97511.84;;;-6.36;72.72
62655;BME280;48717;55.556;37.816;2023-02-20T13:44:54;97519.28;;;-6.46;74.12
62655;BME280;48717;55.556;37.816;2023-02-20T13:47:34;97528.91;;;-6.37;73.39
62655;BME280;48717;55.556;37.816;2023-02-20T13:50:27;97511.78;;;-6.38;73.88
62655;BME280;48717;55.556;37.816;2023-02-20T13:52:56;97497.81;;;-6.49;73.80
62655;BME280;48717;55.556;37.816;2023-02-20T13:55:26;97528.84;;;-6.40;74.88
62655;BME280;48717;55.556;37.816;2023-02-20T13:58:13;97521.16;;;-6.40;75.59
62655;BME280;48717;55.556;37.816;2023-02-20T14:00:51;97491.25;;;-6.69;75.13
62655;BME280;48717;55.556;37.816;2023-02-20T14:06:14;97544.03;;;-6.46;76.43
62655;BME280;48717;55.556;37.816;2023-02-20T14:08:47;97532.91;;;-6.47;75.92
62655;BME280;48717;55.556;37.816;2023-02-20T14:11:31;97542.31;;;-6.47;76.44
62655;BME280;48717;55.556;37.816;2023-02-20T14:14:12;97508.44;;;-6.66;76.41
62655;BME280;48717;55.556;37.816;2023-02-20T14:16:47;97536.06;;;-6.56;76.02
62655;BME280;48717;55.556;37.816;2023-02-20T14:19:26;97527.19;;;-6.67;75.96
62655;BME280;48717;55.556;37.816;2023-02-20T14:21:54;97529.56;;;-6.73;77.09
62655;BME280;48717;55.556;37.816;2023-02-20T14:24:28;97519.22;;;-6.76;77.82
62655;BME280;48717;55.556;37.816;2023-02-20T14:26:55;97525.09;;;-6.79;77.09
62655;BME280;48717;55.556;37.816;2023-02-20T14:29:31;97539.75;;;-6.76;77.61
62655;BME280;48717;55.556;37.816;2023-02-20T14:32:01;97547.44;;;-6.76;77.37
62655;BME280;48717;55.556;37.816;2023-02-20T14:34:34;97546.50;;;-6.78;77.69
62655;BME280;48717;55.556;37.816;2023-02-20T14:37:19;97537.63;;;-6.88;78.51
62655;BME280;48717;55.556;37.816;2023-02-20T14:42:26;97491.88;;;-7.32;79.65
62655;BME280;48717;55.556;37.816;2023-02-20T14:45:03;97540.75;;;-6.99;78.84
62655;BME280;48717;55.556;37.816;2023-02-20T14:47:31;97544.75;;;-7.07;79.64
62655;BME280;48717;55.556;37.816;2023-02-20T14:50:14;97545.53;;;-7.10;80.18
62655;BME280;48717;55.556;37.816;2023-02-20T14:52:42;97533.25;;;-7.20;80.52
62655;BME280;48717;55.556;37.816;2023-02-20T14:55:15;97510.69;;;-7.30;81.60
62655;BME280;48717;55.556;37.816;2023-02-20T14:57:43;97538.56;;;-7.14;81.52
62655;BME280;48717;55.556;37.816;2023-02-20T15:02:46;97538.25;;;-7.23;81.95
62655;BME280;48717;55.556;37.816;2023-02-20T15:05:18;97556.91;;;-7.27;81.63
62655;BME280;48717;55.556;37.816;2023-02-20T15:07:46;97529.81;;;-7.47;81.00
62655;BME280;48717;55.556;37.816;2023-02-20T15:10:36;97563.69;;;-7.29;81.81
62655;BME280;48717;55.556;37.816;2023-02-20T15:13:09;97539.03;;;-7.52;81.23
62655;BME280;48717;55.556;37.816;2023-02-20T15:15:49;97553.75;;;-7.46;81.43
62655;BME280;48717;55.556;37.816;2023-02-20T15:18:44;97538.88;;;-7.56;82.64
62655;BME280;48717;55.556;37.816;2023-02-20T15:21:36;97557.97;;;-7.47;82.22
62655;BME280;48717;55.556;37.816;2023-02-20T15:27:14;97554.50;;;-7.49;84.63
62655;BME280;48717;55.556;37.816;2023-02-20T15:29:43;97558.69;;;-7.51;84.09
62655;BME280;48717;55.556;37.816;2023-02-20T15:32:16;97556.97;;;-7.52;84.86
62655;BME280;48717;55.556;37.816;2023-02-20T15:34:49;97549.03;;;-7.60;84.33
62655;BME280;48717;55.556;37.816;2023-02-20T15:37:26;97552.72;;;-7.51;85.08
62655;BME280;48717;55.556;37.816;2023-02-20T15:42:42;97554.16;;;-7.60;83.93
62655;BME280;48717;55.556;37.816;2023-02-20T15:45:12;97559.25;;;-7.60;82.85
62655;BME280;48717;55.556;37.816;2023-02-20T15:47:40;97538.38;;;-7.72;82.84
62655;BME280;48717;55.556;37.816;2023-02-20T15:50:08;97515.28;;;-7.98;84.34
62655;BME280;48717;55.556;37.816;2023-02-20T15:52:35;97562.31;;;-7.70;82.97
62655;BME280;48717;55.556;37.816;2023-02-20T15:55:02;97555.13;;;-7.80;83.47
62655;BME280;48717;55.556;37.816;2023-02-20T15:57:30;97555.72;;;-7.88;82.19